Millenium Air

Millenium Air Since 1998



 METAR AND TAF INFORMATION
METAR FOR ZGGG
ADDS - METARS form results

(0514 UTC 18 April 2021)
Data provider http://aviationweather.gov/metar/data/
 
METAR text: ZGGG 180500Z 02002MPS 330V060 8000 SCT013 25/20 Q1015 NOSIG
Conditions at: ZGGG (GUANGZHOU/BAIYUN, CN) observed 0500 UTC 18 April 2021
Temperature: 25.0°C (77°F)
Dewpoint: 20.0°C (68°F) [RH = 74%]
Pressure (altimeter): 29.97 inches Hg (1015.0 mb)
Winds: from the NNE (20 degrees) at 5 MPH (4 knots; 2.1 m/s)
Visibility: 5 miles ( 8 km)
Ceiling: at least 12,000 feet AGL
Clouds: scattered clouds at 1300 feet AGL
Weather: no significant weather observed at this time

METAR text: ZGGG 180430Z 04003MPS 8000 SCT013 24/19 Q1015 NOSIG
Conditions at: ZGGG (GUANGZHOU/BAIYUN, CN) observed 0430 UTC 18 April 2021
Temperature: 24.0°C (75°F)
Dewpoint: 19.0°C (66°F) [RH = 74%]
Pressure (altimeter): 29.97 inches Hg (1015.0 mb)
Winds: from the NE (40 degrees) at 7 MPH (6 knots; 3.1 m/s)
Visibility: 5 miles ( 8 km)
Ceiling: at least 12,000 feet AGL
Clouds: scattered clouds at 1300 feet AGL
Weather: no significant weather observed at this time

Forecast for: ZGGG (GUANGZHOU/BAIYUN, CN)
Text: TAF ZGGG 180310Z 1806/1906 09003MPS 8000 BKN033 TX25/1807Z TN18/1822Z
Forecast period: 0600 UTC 18 April 2021 to 0600 UTC 19 April 2021
Forecast type: FROM: standard forecast or significant change
Winds: from the E (90 degrees) at 7 MPH (6 knots; 3.1 m/s)
Visibility: 5 miles (8 km)
Ceiling: 3300 feet AGL
Clouds: broken clouds at 3300 feet AGL
Weather: no significant weather forecast for this period
Text: TEMPO 1822/1904 3500 RA
Forecast period: 2200 UTC 18 April 2021 to 0400 UTC 19 April 2021
Forecast type: TEMPORARY: The following changes expected for less than half the time period
Visibility: 2.17 miles (3.49 km)
Ceiling: unknown
Clouds: missing
Weather: RA  (moderate rain)

 AIRPORT MAP

 RUNWAY INFORMATION
Runway 02L Runway length 11811 ft Runway width 148 ft
Runway elevation 41 ft Runway displaced threshold 0 ft Runway heading 14
Runway 20R Runway length 11811 ft Runway width 148 ft
Runway elevation 43 ft Runway displaced threshold 0 ft Runway heading 194
Runway 02R Runway length 12467 ft Runway width 197 ft
Runway elevation 45 ft Runway displaced threshold 0 ft Runway heading 14
Runway 20L Runway length 12467 ft Runway width 197 ft
Runway elevation 48 ft Runway displaced threshold 670 ft Runway heading 194

 AIRPORT FREQUENCIES
Type APP Name GUANGZHOU Frequency 120.4 MHZ
Type ATIS Name ATIS Frequency 128.6 MHZ
Type CLD Name CLD Frequency 121.95 MHZ
Type GND Name GND Frequency 121.75 MHZ
Type TWR Name TWR Frequency 118.1 MHZ

 AIRPORT NEAR NAVIGATION AIDS
Type VOR-DME Name Cencun Frequency 114600 KHZ
Type VOR-DME Name Conghua Frequency 113000 KHZ
Type NDB Name Baiyun Frequency 411 KHZ
Type NDB Name Yanbu Frequency 423 KHZ
Type VOR-DME Name Yuantan Frequency 108600 KHZ